createdAt,value
2017-12-27T00:01:12.612Z,45.60
2017-12-27T00:03:46.431Z,44.70
2017-12-27T00:06:20.302Z,45.50
2017-12-27T00:08:55.961Z,45.30
2017-12-27T00:11:29.886Z,45.20
2017-12-27T00:14:04.177Z,44.70
2017-12-27T00:16:38.483Z,44.70
2017-12-27T00:19:12.454Z,44.70
2017-12-27T00:21:46.466Z,45.80
2017-12-27T00:24:20.429Z,46.50
2017-12-27T00:26:54.392Z,45.90
2017-12-27T00:29:28.239Z,46.20
2017-12-27T00:31:56.002Z,46.20
2017-12-27T00:34:24.238Z,46.10
2017-12-27T00:36:52.482Z,45.80
2017-12-27T00:39:21.223Z,45.60
2017-12-27T00:41:49.436Z,45.60
2017-12-27T00:44:18.065Z,46.50
2017-12-27T00:46:46.331Z,46.50
2017-12-27T00:49:14.560Z,46.50
2017-12-27T00:51:43.027Z,47.70
2017-12-27T00:54:11.303Z,48.40
2017-12-27T00:56:39.779Z,48.30
2017-12-27T00:59:08.011Z,48.90
2017-12-27T01:01:36.280Z,48.40
2017-12-27T01:04:04.512Z,48.60
2017-12-27T01:06:32.743Z,49.30
2017-12-27T01:09:01.261Z,49.00
2017-12-27T01:11:29.496Z,48.90
2017-12-27T01:13:57.735Z,48.60
2017-12-27T01:16:26.000Z,48.30
2017-12-27T01:18:54.223Z,48.40
2017-12-27T01:21:22.458Z,47.40
2017-12-27T01:23:51.123Z,47.50
2017-12-27T01:26:19.355Z,47.50
2017-12-27T01:28:47.591Z,47.40
2017-12-27T01:31:15.866Z,48.00
2017-12-27T01:33:44.100Z,48.90
2017-12-27T01:36:12.603Z,48.90
2017-12-27T01:38:40.854Z,50.20
2017-12-27T01:41:09.082Z,49.30
2017-12-27T01:43:37.721Z,49.20
2017-12-27T01:46:05.976Z,49.20
2017-12-27T01:48:34.210Z,49.90
2017-12-27T01:51:02.443Z,49.00
2017-12-27T01:53:30.715Z,48.30
2017-12-27T01:55:59.009Z,48.40
2017-12-27T01:58:27.240Z,48.00
2017-12-27T02:00:55.492Z,48.40
2017-12-27T02:03:24.116Z,48.10
2017-12-27T02:05:52.356Z,48.10
2017-12-27T02:08:21.114Z,48.30
2017-12-27T02:10:49.344Z,48.30
2017-12-27T02:13:17.799Z,48.10
2017-12-27T02:15:46.044Z,48.40
2017-12-27T02:18:14.275Z,48.30
2017-12-27T02:20:42.511Z,48.10
2017-12-27T02:23:10.787Z,48.70
2017-12-27T02:25:40.489Z,48.60
2017-12-27T02:28:09.084Z,49.80
2017-12-27T02:30:37.655Z,49.20
2017-12-27T02:33:05.887Z,48.10
2017-12-27T02:35:34.115Z,48.30
2017-12-27T02:38:02.379Z,48.40
2017-12-27T02:40:30.614Z,48.10
2017-12-27T02:42:58.863Z,48.70
2017-12-27T02:45:27.508Z,49.80
2017-12-27T02:47:55.806Z,49.80
2017-12-27T02:50:24.027Z,50.50
2017-12-27T02:52:52.263Z,50.70
2017-12-27T02:55:20.543Z,50.90
2017-12-27T02:57:49.175Z,50.90
2017-12-27T03:00:17.438Z,51.10
2017-12-27T03:02:45.687Z,50.20
2017-12-27T03:05:14.316Z,48.60
2017-12-27T03:07:42.559Z,48.60
2017-12-27T03:10:10.793Z,48.30
2017-12-27T03:12:39.036Z,47.80
2017-12-27T03:15:07.296Z,47.70
2017-12-27T03:17:35.533Z,48.00
2017-12-27T03:20:03.773Z,47.30
2017-12-27T03:22:32.031Z,47.00
2017-12-27T03:25:00.265Z,47.50
2017-12-27T03:27:28.887Z,47.30
2017-12-27T03:29:57.455Z,47.30
2017-12-27T03:32:25.696Z,46.40
2017-12-27T03:34:53.930Z,46.70
2017-12-27T03:37:22.202Z,48.10
2017-12-27T03:39:50.438Z,48.00
2017-12-27T03:42:19.063Z,48.70
2017-12-27T03:44:47.298Z,48.60
2017-12-27T03:47:15.538Z,48.70
2017-12-27T03:49:43.776Z,48.60
2017-12-27T03:52:12.135Z,49.20
2017-12-27T03:54:40.370Z,49.00
2017-12-27T03:57:08.610Z,49.20
2017-12-27T03:59:37.018Z,48.90
2017-12-27T04:02:05.222Z,49.20
2017-12-27T04:04:34.187Z,47.70
2017-12-27T04:07:02.462Z,47.70
2017-12-27T04:09:30.698Z,48.10
2017-12-27T04:11:58.934Z,48.00
2017-12-27T04:14:27.190Z,47.40
2017-12-27T04:16:55.850Z,47.40
2017-12-27T04:19:24.084Z,47.40
2017-12-27T04:21:53.045Z,47.00
2017-12-27T04:24:21.278Z,47.00
2017-12-27T04:26:49.516Z,47.70
2017-12-27T04:29:18.165Z,48.10
2017-12-27T04:31:46.406Z,48.10
2017-12-27T04:34:14.634Z,48.00
2017-12-27T04:36:42.895Z,47.70
2017-12-27T04:39:11.125Z,47.40
2017-12-27T04:41:39.656Z,47.10
2017-12-27T04:44:08.020Z,46.40
2017-12-27T04:46:36.251Z,46.50
2017-12-27T04:49:04.483Z,46.10
2017-12-27T04:51:32.743Z,46.50
2017-12-27T04:54:00.993Z,47.10
2017-12-27T04:56:29.223Z,47.40
2017-12-27T04:58:57.478Z,47.80
2017-12-27T05:01:25.749Z,48.30
2017-12-27T05:03:53.987Z,48.30
2017-12-27T05:06:22.307Z,48.40
2017-12-27T05:08:50.526Z,47.80
2017-12-27T05:11:19.155Z,47.70
2017-12-27T05:13:47.412Z,47.70
2017-12-27T05:16:15.643Z,48.00
2017-12-27T05:18:43.895Z,47.80
2017-12-27T05:21:12.507Z,47.80
2017-12-27T05:23:41.159Z,47.10
2017-12-27T05:26:09.380Z,47.10
2017-12-27T05:28:38.039Z,47.10
2017-12-27T05:31:06.267Z,47.10
2017-12-27T05:33:34.499Z,47.30
2017-12-27T05:36:02.741Z,46.70
2017-12-27T05:38:30.962Z,47.30
2017-12-27T05:40:59.194Z,47.80
2017-12-27T05:43:27.486Z,47.80
2017-12-27T05:45:55.724Z,48.30
2017-12-27T05:48:23.948Z,49.20
2017-12-27T05:50:52.201Z,49.60
2017-12-27T05:53:20.419Z,49.90
2017-12-27T05:55:49.032Z,50.10
2017-12-27T05:58:17.266Z,50.10
2017-12-27T06:00:45.905Z,50.20
2017-12-27T06:03:14.172Z,50.20
2017-12-27T06:05:42.394Z,50.40
2017-12-27T06:08:11.264Z,49.90
2017-12-27T06:10:39.506Z,49.90
2017-12-27T06:13:07.734Z,49.30
2017-12-27T06:15:35.988Z,48.30
2017-12-27T06:18:04.219Z,48.00
2017-12-27T06:20:32.455Z,47.80
2017-12-27T06:23:00.717Z,47.40
2017-12-27T06:25:28.948Z,47.50
2017-12-27T06:27:57.176Z,48.00
2017-12-27T06:30:25.443Z,47.80
2017-12-27T06:32:53.675Z,47.30
2017-12-27T06:35:22.203Z,47.50
2017-12-27T06:37:50.449Z,48.10
2017-12-27T06:40:18.672Z,48.70
2017-12-27T06:42:47.287Z,50.20
2017-12-27T06:45:15.810Z,50.20
2017-12-27T06:47:44.045Z,50.90
2017-12-27T06:50:12.271Z,51.10
2017-12-27T06:52:40.626Z,51.70
2017-12-27T06:55:08.843Z,52.00
2017-12-27T06:57:37.462Z,52.70
2017-12-27T07:00:05.716Z,52.60
2017-12-27T07:02:34.344Z,52.10
2017-12-27T07:05:02.700Z,52.10
2017-12-27T07:07:30.955Z,52.70
2017-12-27T07:09:59.735Z,53.50
2017-12-27T07:12:28.377Z,53.50
2017-12-27T07:14:56.615Z,53.50
2017-12-27T07:17:24.839Z,53.60
2017-12-27T07:19:53.094Z,53.30
2017-12-27T07:22:21.323Z,53.00
2017-12-27T07:24:49.951Z,52.60
2017-12-27T07:27:18.192Z,52.60
2017-12-27T07:29:46.415Z,53.00
2017-12-27T07:32:14.898Z,52.90
2017-12-27T07:34:43.489Z,53.20
2017-12-27T07:37:11.965Z,52.60
2017-12-27T07:39:40.191Z,52.10
2017-12-27T07:42:08.451Z,52.10
2017-12-27T07:44:36.690Z,52.60
2017-12-27T07:47:04.918Z,51.50
2017-12-27T07:49:33.162Z,51.70
2017-12-27T07:52:01.790Z,51.20
2017-12-27T07:54:30.028Z,51.20
2017-12-27T07:56:58.658Z,51.70
2017-12-27T07:59:26.891Z,51.70
2017-12-27T08:01:55.535Z,50.80
2017-12-27T08:04:23.755Z,50.80
2017-12-27T08:06:52.381Z,50.90
2017-12-27T08:09:20.747Z,50.90
2017-12-27T08:11:49.267Z,50.70
2017-12-27T08:14:17.487Z,49.90
2017-12-27T08:16:45.763Z,49.60
2017-12-27T08:19:13.987Z,49.60
2017-12-27T08:21:42.211Z,49.90
2017-12-27T08:24:10.574Z,49.20
2017-12-27T08:26:39.200Z,49.60
2017-12-27T08:29:07.435Z,49.60
2017-12-27T08:31:36.068Z,49.30
2017-12-27T08:34:04.295Z,49.30
2017-12-27T08:36:32.940Z,46.70
2017-12-27T08:39:01.940Z,45.20
2017-12-27T08:41:30.602Z,43.90
2017-12-27T08:43:59.107Z,43.90
2017-12-27T08:46:27.378Z,42.50
2017-12-27T08:48:55.624Z,41.60
2017-12-27T08:51:23.851Z,41.30
2017-12-27T08:53:52.487Z,38.80
2017-12-27T08:56:20.725Z,38.80
2017-12-27T08:58:49.387Z,37.20
2017-12-27T09:01:17.614Z,37.20
2017-12-27T09:03:45.851Z,37.20
2017-12-27T09:06:14.504Z,37.10
2017-12-27T09:08:42.734Z,37.10
2017-12-27T09:11:11.001Z,36.90
2017-12-27T09:13:39.666Z,43.60
2017-12-27T09:16:08.300Z,39.00
2017-12-27T09:18:36.539Z,39.00
2017-12-27T09:21:05.504Z,37.50
2017-12-27T09:23:33.773Z,37.50
2017-12-27T09:26:02.454Z,37.40
2017-12-27T09:28:30.675Z,35.30
2017-12-27T09:30:58.920Z,35.30
2017-12-27T09:33:27.181Z,35.70
2017-12-27T09:35:55.684Z,35.30
2017-12-27T09:38:23.938Z,35.70
2017-12-27T09:40:52.179Z,39.60
2017-12-27T09:43:20.492Z,42.40
2017-12-27T09:45:48.744Z,45.80
2017-12-27T09:48:16.976Z,48.70
2017-12-27T09:50:45.598Z,50.90
2017-12-27T09:53:13.892Z,50.90
2017-12-27T09:55:42.131Z,48.70
2017-12-27T09:58:10.664Z,46.10
2017-12-27T10:00:39.453Z,44.70
2017-12-27T10:03:07.946Z,42.10
2017-12-27T10:05:36.171Z,40.00
2017-12-27T10:08:04.412Z,38.50
2017-12-27T10:10:33.161Z,36.80
2017-12-27T10:13:01.376Z,36.80
2017-12-27T10:15:30.038Z,34.50
2017-12-27T10:17:58.275Z,34.50
2017-12-27T10:20:26.527Z,36.00
2017-12-27T10:22:55.234Z,32.30
2017-12-27T10:25:23.751Z,32.30
2017-12-27T10:27:52.203Z,40.20
2017-12-27T10:30:20.515Z,40.90
2017-12-27T10:32:53.323Z,36.50
2017-12-27T10:35:21.971Z,39.40
2017-12-27T10:37:50.227Z,39.40
2017-12-27T10:40:18.458Z,37.80
2017-12-27T10:42:47.164Z,40.50
2017-12-27T10:45:15.407Z,40.50
2017-12-27T10:47:44.052Z,40.00
2017-12-27T10:50:12.319Z,40.00
2017-12-27T10:52:40.550Z,40.60
2017-12-27T10:55:09.207Z,38.20
2017-12-27T10:57:37.476Z,38.40
2017-12-27T11:00:05.717Z,41.80
2017-12-27T11:02:33.944Z,39.00
2017-12-27T11:05:02.513Z,40.30
2017-12-27T11:07:31.615Z,38.80
2017-12-27T11:09:59.875Z,40.20
2017-12-27T11:12:28.112Z,37.20
2017-12-27T11:14:56.356Z,40.60
2017-12-27T11:17:24.607Z,38.40
2017-12-27T11:19:52.828Z,41.20
2017-12-27T11:22:21.330Z,43.40
2017-12-27T11:24:49.564Z,41.20
2017-12-27T11:27:17.912Z,42.50
2017-12-27T11:29:46.160Z,39.00
2017-12-27T11:32:14.408Z,38.20
2017-12-27T11:34:42.952Z,38.70
2017-12-27T11:37:11.230Z,39.70
2017-12-27T11:39:39.518Z,38.40
2017-12-27T11:42:07.990Z,40.30
2017-12-27T11:44:36.251Z,38.70
2017-12-27T11:47:04.500Z,40.30
2017-12-27T11:49:32.804Z,39.10
2017-12-27T11:52:01.055Z,39.30
2017-12-27T11:54:29.571Z,40.00
2017-12-27T11:56:57.815Z,40.60
2017-12-27T11:59:26.102Z,40.60
2017-12-27T12:01:54.340Z,40.20
2017-12-27T12:04:22.579Z,39.90
2017-12-27T12:06:50.868Z,40.30
2017-12-27T12:09:19.090Z,40.00
2017-12-27T12:11:47.332Z,40.70
2017-12-27T12:14:15.986Z,40.30
2017-12-27T12:16:44.222Z,40.30
2017-12-27T12:19:12.911Z,55.10
2017-12-27T12:21:41.177Z,55.20
2017-12-27T12:24:09.416Z,47.10
2017-12-27T12:26:38.051Z,44.40
2017-12-27T12:29:06.293Z,44.40
2017-12-27T12:31:34.927Z,40.70
2017-12-27T12:34:03.207Z,40.70
2017-12-27T12:36:31.447Z,41.00
2017-12-27T12:38:59.692Z,41.80
2017-12-27T12:41:28.344Z,40.20
2017-12-27T12:43:56.587Z,40.20
2017-12-27T12:46:24.827Z,40.70
2017-12-27T12:48:53.603Z,40.20
2017-12-27T12:51:21.893Z,40.20
2017-12-27T12:53:50.344Z,38.80
2017-12-27T12:56:18.675Z,40.50
2017-12-27T12:58:46.951Z,40.70
2017-12-27T13:01:15.244Z,39.60
2017-12-27T13:03:43.948Z,40.70
2017-12-27T13:06:12.302Z,40.70
2017-12-27T13:08:41.013Z,40.30
2017-12-27T13:11:09.251Z,41.90
2017-12-27T13:13:37.556Z,40.20
2017-12-27T13:16:05.840Z,40.50
2017-12-27T13:18:34.192Z,39.40
2017-12-27T13:21:02.479Z,40.00
2017-12-27T13:23:30.888Z,39.30
2017-12-27T13:25:59.465Z,39.40
2017-12-27T13:28:27.754Z,39.60
2017-12-27T13:30:55.990Z,40.90
2017-12-27T13:33:24.507Z,41.00
2017-12-27T13:35:52.748Z,41.60
2017-12-27T13:38:20.987Z,40.70
2017-12-27T13:40:49.615Z,41.30
2017-12-27T13:43:18.092Z,41.30
2017-12-27T13:45:46.402Z,41.50
2017-12-27T13:48:14.667Z,41.20
2017-12-27T13:50:42.929Z,42.10
2017-12-27T13:53:11.160Z,41.20
2017-12-27T13:55:39.783Z,41.50
2017-12-27T13:58:08.043Z,41.50
2017-12-27T14:00:36.286Z,41.90
2017-12-27T14:03:04.950Z,42.80
2017-12-27T14:05:33.182Z,42.80
2017-12-27T14:08:01.428Z,43.10
2017-12-27T14:10:30.091Z,44.90
2017-12-27T14:12:58.328Z,44.70
2017-12-27T14:15:26.560Z,44.40
2017-12-27T14:17:55.307Z,44.00
2017-12-27T14:20:23.532Z,44.00
2017-12-27T14:22:51.767Z,43.70
2017-12-27T14:25:20.035Z,43.30
2017-12-27T14:27:48.280Z,44.60
2017-12-27T14:30:16.517Z,43.10
2017-12-27T14:32:45.078Z,43.40
2017-12-27T14:35:13.313Z,44.30
2017-12-27T14:37:41.619Z,43.90
2017-12-27T14:40:10.662Z,44.10
2017-12-27T14:42:38.902Z,43.10
2017-12-27T14:45:07.156Z,42.80
2017-12-27T14:47:35.408Z,43.10
2017-12-27T14:50:03.657Z,43.90
2017-12-27T14:52:32.288Z,43.40
2017-12-27T14:55:00.677Z,43.40
2017-12-27T14:57:28.890Z,44.30
2017-12-27T14:59:57.530Z,45.80
2017-12-27T15:02:25.903Z,45.80
2017-12-27T15:04:54.265Z,46.10
2017-12-27T15:07:22.858Z,47.10
2017-12-27T15:09:51.115Z,47.10
2017-12-27T15:12:19.371Z,46.80
2017-12-27T15:14:47.622Z,46.50
2017-12-27T15:17:15.888Z,46.20
2017-12-27T15:19:44.131Z,46.70
2017-12-27T15:22:12.430Z,47.10
2017-12-27T15:24:40.707Z,47.30
2017-12-27T15:27:08.924Z,47.40
2017-12-27T15:29:37.555Z,47.70
2017-12-27T15:32:05.875Z,47.70
2017-12-27T15:34:35.427Z,47.50
2017-12-27T15:37:03.667Z,47.50
2017-12-27T15:39:32.373Z,47.10
2017-12-27T15:42:00.635Z,47.10
2017-12-27T15:44:29.066Z,46.80
2017-12-27T15:46:57.374Z,46.70
2017-12-27T15:49:25.933Z,46.50
2017-12-27T15:51:54.167Z,46.40
2017-12-27T15:54:22.467Z,46.50
2017-12-27T15:56:50.698Z,46.80
2017-12-27T15:59:18.931Z,46.80
2017-12-27T16:01:47.183Z,46.70
2017-12-27T16:04:15.479Z,46.70
2017-12-27T16:06:43.729Z,46.20
2017-12-27T16:09:11.991Z,45.60
2017-12-27T16:11:40.245Z,45.20
2017-12-27T16:14:08.922Z,45.80
2017-12-27T16:16:37.564Z,46.40
2017-12-27T16:19:05.824Z,46.40
2017-12-27T16:21:34.129Z,47.00
2017-12-27T16:24:02.543Z,46.80
2017-12-27T16:26:31.207Z,46.50
2017-12-27T16:29:00.423Z,46.50
2017-12-27T16:31:28.664Z,46.50
2017-12-27T16:33:56.900Z,46.80
2017-12-27T16:36:25.179Z,47.00
2017-12-27T16:38:53.442Z,46.50
2017-12-27T16:41:21.675Z,46.80
2017-12-27T16:43:50.259Z,46.20
2017-12-27T16:46:18.499Z,46.40
2017-12-27T16:48:46.761Z,46.80
2017-12-27T16:51:15.021Z,46.80
2017-12-27T16:53:43.285Z,47.00
2017-12-27T16:56:11.980Z,47.30
2017-12-27T16:58:40.639Z,47.10
2017-12-27T17:01:08.884Z,47.10
2017-12-27T17:03:37.125Z,47.00
2017-12-27T17:06:05.450Z,47.10
2017-12-27T17:08:33.695Z,47.30
2017-12-27T17:11:01.966Z,46.50
2017-12-27T17:13:30.243Z,46.20
2017-12-27T17:15:58.500Z,46.20
2017-12-27T17:18:27.141Z,45.90
2017-12-27T17:20:55.487Z,45.90
2017-12-27T17:23:23.747Z,45.90
2017-12-27T17:25:51.980Z,46.20
2017-12-27T17:28:20.246Z,46.10
2017-12-27T17:30:48.509Z,46.40
2017-12-27T17:33:16.856Z,46.50
2017-12-27T17:35:45.117Z,46.70
2017-12-27T17:38:13.757Z,46.10
2017-12-27T17:40:42.038Z,46.10
2017-12-27T17:43:10.300Z,45.90
2017-12-27T17:45:38.595Z,46.40
2017-12-27T17:48:06.863Z,46.10
2017-12-27T17:50:35.124Z,46.10
2017-12-27T17:53:03.475Z,45.80
2017-12-27T17:55:31.854Z,45.30
2017-12-27T17:58:00.144Z,45.60
2017-12-27T18:00:28.445Z,45.60
2017-12-27T18:02:56.708Z,45.90
2017-12-27T18:05:24.953Z,46.10
2017-12-27T18:07:53.213Z,46.20
2017-12-27T18:10:21.867Z,46.20
2017-12-27T18:12:50.120Z,46.20
2017-12-27T18:15:18.357Z,46.10
2017-12-27T18:17:46.623Z,46.50
2017-12-27T18:20:15.270Z,47.00
2017-12-27T18:22:43.505Z,47.00
2017-12-27T18:25:11.794Z,46.50
2017-12-27T18:27:40.340Z,46.50
2017-12-27T18:30:08.604Z,46.50
2017-12-27T18:32:37.175Z,47.40
2017-12-27T18:35:05.425Z,47.10
2017-12-27T18:37:33.652Z,47.00
2017-12-27T18:40:02.611Z,47.10
2017-12-27T18:42:31.196Z,47.10
2017-12-27T18:44:59.460Z,47.40
2017-12-27T18:47:27.734Z,47.40
2017-12-27T18:49:56.027Z,47.30
2017-12-27T18:52:24.263Z,47.30
2017-12-27T18:54:52.521Z,47.30
2017-12-27T18:57:20.848Z,47.30
2017-12-27T18:59:49.103Z,47.40
2017-12-27T19:02:17.339Z,47.70
2017-12-27T19:04:45.608Z,47.30
2017-12-27T19:07:13.876Z,47.40
2017-12-27T19:09:42.515Z,47.10
2017-12-27T19:12:10.806Z,47.10
2017-12-27T19:14:39.148Z,47.10
2017-12-27T19:17:07.421Z,46.80
2017-12-27T19:19:35.660Z,46.10
2017-12-27T19:22:04.328Z,47.10
2017-12-27T19:24:32.785Z,47.10
2017-12-27T19:27:01.474Z,47.10
2017-12-27T19:29:29.779Z,47.10
2017-12-27T19:31:58.048Z,46.80
2017-12-27T19:34:27.139Z,46.70
2017-12-27T19:36:55.866Z,46.40
2017-12-27T19:39:24.487Z,46.20
2017-12-27T19:41:52.736Z,46.20
2017-12-27T19:44:20.998Z,46.40
2017-12-27T19:46:49.655Z,45.80
2017-12-27T19:49:17.992Z,45.80
2017-12-27T19:51:46.301Z,46.10
2017-12-27T19:54:14.556Z,46.80
2017-12-27T19:56:42.789Z,47.10
2017-12-27T19:59:12.348Z,48.00
2017-12-27T20:01:40.604Z,48.00
2017-12-27T20:04:09.151Z,47.70
2017-12-27T20:06:38.898Z,47.30
2017-12-27T20:09:07.148Z,48.10
2017-12-27T20:11:35.534Z,48.10
2017-12-27T20:14:03.781Z,48.00
2017-12-27T20:16:32.413Z,47.10
2017-12-27T20:19:00.678Z,47.10
2017-12-27T20:21:28.944Z,47.80
2017-12-27T20:23:57.195Z,47.70
2017-12-27T20:26:25.868Z,47.30
2017-12-27T20:28:54.118Z,47.30
2017-12-27T20:31:22.372Z,46.70
2017-12-27T20:33:50.649Z,46.40
2017-12-27T20:36:18.887Z,46.20
2017-12-27T20:38:47.572Z,46.70
2017-12-27T20:41:16.476Z,46.50
2017-12-27T20:43:44.719Z,46.50
2017-12-27T20:46:14.305Z,46.40
2017-12-27T20:48:42.672Z,46.40
2017-12-27T20:51:10.955Z,45.80
2017-12-27T20:53:39.192Z,45.90
2017-12-27T20:56:07.450Z,46.70
2017-12-27T20:58:36.100Z,46.20
2017-12-27T21:01:04.692Z,46.20
2017-12-27T21:03:32.942Z,46.50
2017-12-27T21:06:01.231Z,46.70
2017-12-27T21:08:29.464Z,46.80
2017-12-27T21:10:57.711Z,46.50
2017-12-27T21:13:26.398Z,45.80
2017-12-27T21:15:55.469Z,46.10
2017-12-27T21:18:24.256Z,47.00
2017-12-27T21:20:52.508Z,47.00
2017-12-27T21:23:20.756Z,47.30
2017-12-27T21:25:49.028Z,47.10
2017-12-27T21:28:17.307Z,46.70
2017-12-27T21:30:45.573Z,46.70
2017-12-27T21:33:13.808Z,46.40
2017-12-27T21:35:42.148Z,45.30
2017-12-27T21:38:10.399Z,45.80
2017-12-27T21:40:38.640Z,45.60
2017-12-27T21:43:06.936Z,45.60
2017-12-27T21:45:35.598Z,45.50
2017-12-27T21:48:09.603Z,45.50
2017-12-27T21:50:37.846Z,45.50
2017-12-27T21:53:06.116Z,44.70
2017-12-27T21:55:34.369Z,45.20
2017-12-27T21:58:08.855Z,44.90
2017-12-27T22:00:43.597Z,44.90
2017-12-27T22:03:12.251Z,45.00
2017-12-27T22:05:40.519Z,44.90
2017-12-27T22:08:08.892Z,44.60
2017-12-27T22:10:37.148Z,44.60
2017-12-27T22:13:05.399Z,44.70
2017-12-27T22:15:33.753Z,45.20
2017-12-27T22:18:01.999Z,45.30
2017-12-27T22:20:36.115Z,44.90
2017-12-27T22:23:04.355Z,44.90
2017-12-27T22:25:32.614Z,44.90
2017-12-27T22:28:00.889Z,44.90
2017-12-27T22:30:29.651Z,44.30
2017-12-27T22:32:57.898Z,44.30
2017-12-27T22:35:26.226Z,44.10
2017-12-27T22:37:54.459Z,43.60
2017-12-27T22:40:22.703Z,43.90
2017-12-27T22:42:50.972Z,44.60
2017-12-27T22:45:19.647Z,44.70
2017-12-27T22:47:47.891Z,44.70
2017-12-27T22:50:16.159Z,44.60
2017-12-27T22:52:44.415Z,44.00
2017-12-27T22:55:12.715Z,44.30
2017-12-27T22:57:40.956Z,44.40
2017-12-27T23:00:09.199Z,44.10
2017-12-27T23:02:38.477Z,44.90
2017-12-27T23:05:06.826Z,44.90
2017-12-27T23:07:35.112Z,44.90
2017-12-27T23:10:03.378Z,44.70
2017-12-27T23:12:31.632Z,45.00
2017-12-27T23:14:59.887Z,45.60
2017-12-27T23:17:28.543Z,45.80
2017-12-27T23:19:57.039Z,45.60
2017-12-27T23:22:25.299Z,46.20
2017-12-27T23:24:54.811Z,46.10
2017-12-27T23:27:23.075Z,46.10
2017-12-27T23:29:51.320Z,45.80
2017-12-27T23:32:19.570Z,45.60
2017-12-27T23:34:47.820Z,45.00
2017-12-27T23:37:16.073Z,45.80
2017-12-27T23:39:44.395Z,45.30
2017-12-27T23:42:13.081Z,45.00
2017-12-27T23:44:41.705Z,44.60
2017-12-27T23:47:09.982Z,44.60
2017-12-27T23:49:38.218Z,44.10
2017-12-27T23:52:06.488Z,44.70
2017-12-27T23:54:35.147Z,44.10
2017-12-27T23:57:03.416Z,44.10
2017-12-27T23:59:31.704Z,44.60
